sensor_id;sensor_type;location;lat;lon;timestamp;P1;durP1;ratioP1;P2;durP2;ratioP2
11771;SDS011;12556;55.748;13.194;2024-01-30T00:02:17;10.47;;;7.63;;
11771;SDS011;12556;55.748;13.194;2024-01-30T00:04:43;8.37;;;6.83;;
11771;SDS011;12556;55.748;13.194;2024-01-30T00:07:10;9.70;;;7.80;;
11771;SDS011;12556;55.748;13.194;2024-01-30T00:09:39;8.07;;;7.27;;
11771;SDS011;12556;55.748;13.194;2024-01-30T00:12:06;11.20;;;7.53;;
11771;SDS011;12556;55.748;13.194;2024-01-30T00:14:33;11.20;;;7.73;;
11771;SDS011;12556;55.748;13.194;2024-01-30T00:17:00;10.80;;;7.63;;
11771;SDS011;12556;55.748;13.194;2024-01-30T00:19:27;8.80;;;7.67;;
11771;SDS011;12556;55.748;13.194;2024-01-30T00:21:53;10.13;;;7.60;;
11771;SDS011;12556;55.748;13.194;2024-01-30T00:24:21;9.27;;;7.17;;
11771;SDS011;12556;55.748;13.194;2024-01-30T00:26:49;9.63;;;7.70;;
11771;SDS011;12556;55.748;13.194;2024-01-30T00:29:17;13.20;;;8.60;;
11771;SDS011;12556;55.748;13.194;2024-01-30T00:31:45;10.67;;;8.17;;
11771;SDS011;12556;55.748;13.194;2024-01-30T00:34:12;10.37;;;8.00;;
11771;SDS011;12556;55.748;13.194;2024-01-30T00:36:38;12.77;;;9.10;;
11771;SDS011;12556;55.748;13.194;2024-01-30T00:39:05;11.17;;;8.03;;
11771;SDS011;12556;55.748;13.194;2024-01-30T00:41:34;15.23;;;8.27;;
11771;SDS011;12556;55.748;13.194;2024-01-30T00:44:02;11.73;;;8.37;;
11771;SDS011;12556;55.748;13.194;2024-01-30T00:46:29;9.60;;;8.53;;
11771;SDS011;12556;55.748;13.194;2024-01-30T00:48:56;9.97;;;8.77;;
11771;SDS011;12556;55.748;13.194;2024-01-30T00:51:23;10.63;;;8.53;;
11771;SDS011;12556;55.748;13.194;2024-01-30T00:53:50;10.90;;;8.63;;
11771;SDS011;12556;55.748;13.194;2024-01-30T00:56:16;13.53;;;8.57;;
11771;SDS011;12556;55.748;13.194;2024-01-30T00:58:44;8.93;;;8.00;;
11771;SDS011;12556;55.748;13.194;2024-01-30T01:01:12;11.73;;;8.83;;
11771;SDS011;12556;55.748;13.194;2024-01-30T01:03:39;12.30;;;9.60;;
11771;SDS011;12556;55.748;13.194;2024-01-30T01:06:08;12.83;;;9.07;;
11771;SDS011;12556;55.748;13.194;2024-01-30T01:08:36;11.40;;;9.27;;
11771;SDS011;12556;55.748;13.194;2024-01-30T01:11:03;11.23;;;9.23;;
11771;SDS011;12556;55.748;13.194;2024-01-30T01:13:29;11.83;;;10.07;;
11771;SDS011;12556;55.748;13.194;2024-01-30T01:15:56;10.43;;;9.30;;
11771;SDS011;12556;55.748;13.194;2024-01-30T01:18:24;13.17;;;9.73;;
11771;SDS011;12556;55.748;13.194;2024-01-30T01:20:52;13.57;;;10.73;;
11771;SDS011;12556;55.748;13.194;2024-01-30T01:23:19;15.13;;;11.13;;
11771;SDS011;12556;55.748;13.194;2024-01-30T01:25:45;11.77;;;10.17;;
11771;SDS011;12556;55.748;13.194;2024-01-30T01:28:12;14.57;;;10.80;;
11771;SDS011;12556;55.748;13.194;2024-01-30T01:30:39;14.17;;;11.57;;
11771;SDS011;12556;55.748;13.194;2024-01-30T01:33:06;17.03;;;12.43;;
11771;SDS011;12556;55.748;13.194;2024-01-30T01:35:35;13.87;;;11.43;;
11771;SDS011;12556;55.748;13.194;2024-01-30T01:38:02;15.17;;;11.63;;
11771;SDS011;12556;55.748;13.194;2024-01-30T01:40:29;15.03;;;12.30;;
11771;SDS011;12556;55.748;13.194;2024-01-30T01:42:56;17.03;;;13.03;;
11771;SDS011;12556;55.748;13.194;2024-01-30T01:45:23;14.70;;;12.10;;
11771;SDS011;12556;55.748;13.194;2024-01-30T01:47:51;18.73;;;12.37;;
11771;SDS011;12556;55.748;13.194;2024-01-30T01:50:18;18.73;;;12.33;;
11771;SDS011;12556;55.748;13.194;2024-01-30T01:52:47;17.37;;;12.20;;
11771;SDS011;12556;55.748;13.194;2024-01-30T01:55:15;18.87;;;12.87;;
11771;SDS011;12556;55.748;13.194;2024-01-30T01:57:43;19.07;;;12.83;;
11771;SDS011;12556;55.748;13.194;2024-01-30T02:00:11;17.60;;;13.53;;
11771;SDS011;12556;55.748;13.194;2024-01-30T02:02:39;16.07;;;12.73;;
11771;SDS011;12556;55.748;13.194;2024-01-30T02:05:07;18.83;;;12.40;;
11771;SDS011;12556;55.748;13.194;2024-01-30T02:07:35;25.27;;;14.67;;
11771;SDS011;12556;55.748;13.194;2024-01-30T02:10:03;17.77;;;13.53;;
11771;SDS011;12556;55.748;13.194;2024-01-30T02:12:30;17.20;;;13.33;;
11771;SDS011;12556;55.748;13.194;2024-01-30T02:14:57;20.70;;;13.37;;
11771;SDS011;12556;55.748;13.194;2024-01-30T02:17:24;28.43;;;14.33;;
11771;SDS011;12556;55.748;13.194;2024-01-30T02:19:51;24.83;;;14.27;;
11771;SDS011;12556;55.748;13.194;2024-01-30T02:22:20;27.03;;;16.20;;
11771;SDS011;12556;55.748;13.194;2024-01-30T02:24:47;32.43;;;17.13;;
11771;SDS011;12556;55.748;13.194;2024-01-30T02:27:14;25.93;;;15.77;;
11771;SDS011;12556;55.748;13.194;2024-01-30T02:29:41;33.33;;;16.50;;
11771;SDS011;12556;55.748;13.194;2024-01-30T02:32:08;29.17;;;17.57;;
11771;SDS011;12556;55.748;13.194;2024-01-30T02:34:35;41.73;;;18.17;;
11771;SDS011;12556;55.748;13.194;2024-01-30T02:37:01;39.80;;;20.87;;
11771;SDS011;12556;55.748;13.194;2024-01-30T02:39:30;42.93;;;19.73;;
11771;SDS011;12556;55.748;13.194;2024-01-30T02:41:56;46.83;;;20.60;;
11771;SDS011;12556;55.748;13.194;2024-01-30T02:44:23;59.13;;;22.13;;
11771;SDS011;12556;55.748;13.194;2024-01-30T02:46:50;53.97;;;22.47;;
11771;SDS011;12556;55.748;13.194;2024-01-30T02:49:19;53.37;;;22.73;;
11771;SDS011;12556;55.748;13.194;2024-01-30T02:51:46;51.33;;;23.63;;
11771;SDS011;12556;55.748;13.194;2024-01-30T02:54:12;65.60;;;24.23;;
11771;SDS011;12556;55.748;13.194;2024-01-30T02:56:41;63.73;;;25.30;;
11771;SDS011;12556;55.748;13.194;2024-01-30T02:59:07;56.43;;;25.03;;
11771;SDS011;12556;55.748;13.194;2024-01-30T03:01:41;57.40;;;23.70;;
11771;SDS011;12556;55.748;13.194;2024-01-30T03:04:09;79.37;;;27.53;;
11771;SDS011;12556;55.748;13.194;2024-01-30T03:06:36;76.53;;;25.57;;
11771;SDS011;12556;55.748;13.194;2024-01-30T03:09:03;71.87;;;26.33;;
11771;SDS011;12556;55.748;13.194;2024-01-30T03:11:30;75.10;;;25.87;;
11771;SDS011;12556;55.748;13.194;2024-01-30T03:13:58;55.97;;;23.07;;
11771;SDS011;12556;55.748;13.194;2024-01-30T03:16:25;56.83;;;23.83;;
11771;SDS011;12556;55.748;13.194;2024-01-30T03:18:51;78.03;;;25.47;;
11771;SDS011;12556;55.748;13.194;2024-01-30T03:21:18;61.83;;;25.40;;
11771;SDS011;12556;55.748;13.194;2024-01-30T03:23:45;83.33;;;26.30;;
11771;SDS011;12556;55.748;13.194;2024-01-30T03:26:12;72.23;;;24.23;;
11771;SDS011;12556;55.748;13.194;2024-01-30T03:28:40;81.70;;;26.23;;
11771;SDS011;12556;55.748;13.194;2024-01-30T03:31:08;85.50;;;26.53;;
11771;SDS011;12556;55.748;13.194;2024-01-30T03:33:36;61.73;;;23.37;;
11771;SDS011;12556;55.748;13.194;2024-01-30T03:36:03;75.53;;;24.83;;
11771;SDS011;12556;55.748;13.194;2024-01-30T03:38:30;51.20;;;21.67;;
11771;SDS011;12556;55.748;13.194;2024-01-30T03:40:58;62.70;;;24.07;;
11771;SDS011;12556;55.748;13.194;2024-01-30T03:43:25;51.20;;;22.23;;
11771;SDS011;12556;55.748;13.194;2024-01-30T03:45:52;55.23;;;23.87;;
11771;SDS011;12556;55.748;13.194;2024-01-30T03:48:20;53.17;;;23.50;;
11771;SDS011;12556;55.748;13.194;2024-01-30T03:50:47;89.77;;;27.70;;
11771;SDS011;12556;55.748;13.194;2024-01-30T03:53:14;83.67;;;26.73;;
11771;SDS011;12556;55.748;13.194;2024-01-30T03:55:41;88.77;;;28.90;;
11771;SDS011;12556;55.748;13.194;2024-01-30T03:58:08;68.20;;;25.60;;
11771;SDS011;12556;55.748;13.194;2024-01-30T04:00:35;138.93;;;31.17;;
11771;SDS011;12556;55.748;13.194;2024-01-30T04:03:02;56.80;;;23.77;;
11771;SDS011;12556;55.748;13.194;2024-01-30T04:05:30;79.73;;;29.17;;
11771;SDS011;12556;55.748;13.194;2024-01-30T04:07:57;68.10;;;24.60;;
11771;SDS011;12556;55.748;13.194;2024-01-30T04:10:24;56.53;;;23.17;;
11771;SDS011;12556;55.748;13.194;2024-01-30T04:12:51;112.23;;;30.77;;
11771;SDS011;12556;55.748;13.194;2024-01-30T04:15:19;68.27;;;24.90;;
11771;SDS011;12556;55.748;13.194;2024-01-30T04:17:46;66.93;;;24.90;;
11771;SDS011;12556;55.748;13.194;2024-01-30T04:20:13;64.50;;;23.80;;
11771;SDS011;12556;55.748;13.194;2024-01-30T04:22:43;152.50;;;32.67;;
11771;SDS011;12556;55.748;13.194;2024-01-30T04:25:10;75.00;;;25.23;;
11771;SDS011;12556;55.748;13.194;2024-01-30T04:27:37;65.50;;;25.10;;
11771;SDS011;12556;55.748;13.194;2024-01-30T04:30:04;68.87;;;24.33;;
11771;SDS011;12556;55.748;13.194;2024-01-30T04:32:32;83.93;;;26.90;;
11771;SDS011;12556;55.748;13.194;2024-01-30T04:34:59;69.90;;;25.53;;
11771;SDS011;12556;55.748;13.194;2024-01-30T04:37:26;92.70;;;28.80;;
11771;SDS011;12556;55.748;13.194;2024-01-30T04:39:54;61.07;;;23.87;;
11771;SDS011;12556;55.748;13.194;2024-01-30T04:42:21;82.77;;;27.87;;
11771;SDS011;12556;55.748;13.194;2024-01-30T04:44:47;79.33;;;26.80;;
11771;SDS011;12556;55.748;13.194;2024-01-30T04:47:14;59.27;;;26.17;;
11771;SDS011;12556;55.748;13.194;2024-01-30T04:49:41;60.50;;;25.37;;
11771;SDS011;12556;55.748;13.194;2024-01-30T04:52:08;76.73;;;26.23;;
11771;SDS011;12556;55.748;13.194;2024-01-30T04:54:35;70.20;;;25.43;;
11771;SDS011;12556;55.748;13.194;2024-01-30T04:57:04;80.17;;;27.63;;
11771;SDS011;12556;55.748;13.194;2024-01-30T04:59:34;52.33;;;24.40;;
11771;SDS011;12556;55.748;13.194;2024-01-30T05:02:01;97.73;;;29.97;;
11771;SDS011;12556;55.748;13.194;2024-01-30T05:04:28;94.33;;;29.70;;
11771;SDS011;12556;55.748;13.194;2024-01-30T05:06:55;64.60;;;26.73;;
11771;SDS011;12556;55.748;13.194;2024-01-30T05:09:22;114.60;;;30.30;;
11771;SDS011;12556;55.748;13.194;2024-01-30T05:11:49;101.20;;;26.83;;
11771;SDS011;12556;55.748;13.194;2024-01-30T05:14:17;79.40;;;25.90;;
11771;SDS011;12556;55.748;13.194;2024-01-30T05:16:44;96.93;;;28.17;;
11771;SDS011;12556;55.748;13.194;2024-01-30T05:19:12;86.13;;;26.90;;
11771;SDS011;12556;55.748;13.194;2024-01-30T05:21:39;64.57;;;24.60;;
11771;SDS011;12556;55.748;13.194;2024-01-30T05:24:07;74.07;;;24.97;;
11771;SDS011;12556;55.748;13.194;2024-01-30T05:26:35;66.00;;;25.40;;
11771;SDS011;12556;55.748;13.194;2024-01-30T05:29:02;78.00;;;25.53;;
11771;SDS011;12556;55.748;13.194;2024-01-30T05:31:30;59.30;;;23.23;;
11771;SDS011;12556;55.748;13.194;2024-01-30T05:33:57;67.53;;;24.33;;
11771;SDS011;12556;55.748;13.194;2024-01-30T05:36:24;71.77;;;26.77;;
11771;SDS011;12556;55.748;13.194;2024-01-30T05:38:51;77.73;;;26.40;;
11771;SDS011;12556;55.748;13.194;2024-01-30T05:41:18;103.07;;;27.97;;
11771;SDS011;12556;55.748;13.194;2024-01-30T05:43:46;94.53;;;27.37;;
11771;SDS011;12556;55.748;13.194;2024-01-30T05:46:13;78.93;;;26.40;;
11771;SDS011;12556;55.748;13.194;2024-01-30T05:48:41;77.77;;;25.50;;
11771;SDS011;12556;55.748;13.194;2024-01-30T05:51:08;125.37;;;30.77;;
11771;SDS011;12556;55.748;13.194;2024-01-30T05:53:35;55.23;;;24.23;;
11771;SDS011;12556;55.748;13.194;2024-01-30T05:56:02;83.20;;;26.77;;
11771;SDS011;12556;55.748;13.194;2024-01-30T05:58:29;83.17;;;28.03;;
11771;SDS011;12556;55.748;13.194;2024-01-30T06:00:57;66.03;;;24.20;;
11771;SDS011;12556;55.748;13.194;2024-01-30T06:03:23;116.13;;;31.93;;
11771;SDS011;12556;55.748;13.194;2024-01-30T06:05:52;63.43;;;27.53;;
11771;SDS011;12556;55.748;13.194;2024-01-30T06:08:18;152.27;;;33.50;;
11771;SDS011;12556;55.748;13.194;2024-01-30T06:10:45;70.27;;;25.20;;
11771;SDS011;12556;55.748;13.194;2024-01-30T06:13:12;169.83;;;32.87;;
11771;SDS011;12556;55.748;13.194;2024-01-30T06:15:39;186.10;;;36.23;;
11771;SDS011;12556;55.748;13.194;2024-01-30T06:18:06;136.13;;;30.53;;
11771;SDS011;12556;55.748;13.194;2024-01-30T06:20:33;106.23;;;29.60;;
11771;SDS011;12556;55.748;13.194;2024-01-30T06:23:02;151.70;;;32.37;;
11771;SDS011;12556;55.748;13.194;2024-01-30T06:25:28;121.00;;;31.27;;
11771;SDS011;12556;55.748;13.194;2024-01-30T06:27:55;90.67;;;28.77;;
11771;SDS011;12556;55.748;13.194;2024-01-30T06:30:22;158.03;;;34.60;;
11771;SDS011;12556;55.748;13.194;2024-01-30T06:32:49;130.90;;;31.77;;
11771;SDS011;12556;55.748;13.194;2024-01-30T06:35:16;88.40;;;26.90;;
11771;SDS011;12556;55.748;13.194;2024-01-30T06:37:43;227.93;;;40.23;;
11771;SDS011;12556;55.748;13.194;2024-01-30T06:40:12;93.77;;;28.03;;
11771;SDS011;12556;55.748;13.194;2024-01-30T06:42:38;77.53;;;27.87;;
11771;SDS011;12556;55.748;13.194;2024-01-30T06:45:06;88.10;;;29.13;;
11771;SDS011;12556;55.748;13.194;2024-01-30T06:47:34;87.33;;;27.80;;
11771;SDS011;12556;55.748;13.194;2024-01-30T06:50:00;114.60;;;30.13;;
11771;SDS011;12556;55.748;13.194;2024-01-30T06:52:28;114.27;;;27.67;;
11771;SDS011;12556;55.748;13.194;2024-01-30T06:54:55;97.83;;;27.00;;
11771;SDS011;12556;55.748;13.194;2024-01-30T06:57:23;115.77;;;31.23;;
11771;SDS011;12556;55.748;13.194;2024-01-30T06:59:51;138.83;;;33.03;;
11771;SDS011;12556;55.748;13.194;2024-01-30T07:02:18;114.17;;;29.33;;
11771;SDS011;12556;55.748;13.194;2024-01-30T07:04:45;259.63;;;43.97;;
11771;SDS011;12556;55.748;13.194;2024-01-30T07:07:11;108.20;;;29.03;;
11771;SDS011;12556;55.748;13.194;2024-01-30T07:09:40;202.07;;;37.97;;
11771;SDS011;12556;55.748;13.194;2024-01-30T07:12:07;161.30;;;33.13;;
11771;SDS011;12556;55.748;13.194;2024-01-30T07:14:35;162.67;;;33.07;;
11771;SDS011;12556;55.748;13.194;2024-01-30T07:17:03;133.33;;;30.33;;
11771;SDS011;12556;55.748;13.194;2024-01-30T07:19:30;190.03;;;37.23;;
11771;SDS011;12556;55.748;13.194;2024-01-30T07:21:56;135.83;;;30.03;;
11771;SDS011;12556;55.748;13.194;2024-01-30T07:24:23;242.57;;;36.70;;
11771;SDS011;12556;55.748;13.194;2024-01-30T07:26:50;208.37;;;40.70;;
11771;SDS011;12556;55.748;13.194;2024-01-30T07:29:17;219.57;;;37.93;;
11771;SDS011;12556;55.748;13.194;2024-01-30T07:31:45;186.80;;;33.93;;
11771;SDS011;12556;55.748;13.194;2024-01-30T07:34:12;207.03;;;37.47;;
11771;SDS011;12556;55.748;13.194;2024-01-30T07:36:39;172.37;;;33.13;;
11771;SDS011;12556;55.748;13.194;2024-01-30T07:39:06;142.07;;;30.60;;
11771;SDS011;12556;55.748;13.194;2024-01-30T07:41:33;223.80;;;37.50;;
11771;SDS011;12556;55.748;13.194;2024-01-30T07:44:00;192.27;;;34.83;;
11771;SDS011;12556;55.748;13.194;2024-01-30T07:46:27;172.63;;;33.67;;
11771;SDS011;12556;55.748;13.194;2024-01-30T07:48:55;257.20;;;41.17;;
11771;SDS011;12556;55.748;13.194;2024-01-30T07:51:23;187.00;;;35.13;;
11771;SDS011;12556;55.748;13.194;2024-01-30T07:53:53;110.37;;;28.50;;
11771;SDS011;12556;55.748;13.194;2024-01-30T07:56:22;188.17;;;34.43;;
11771;SDS011;12556;55.748;13.194;2024-01-30T07:58:49;149.07;;;31.03;;
11771;SDS011;12556;55.748;13.194;2024-01-30T08:01:16;285.43;;;44.93;;
11771;SDS011;12556;55.748;13.194;2024-01-30T08:03:43;177.33;;;31.60;;
11771;SDS011;12556;55.748;13.194;2024-01-30T08:06:11;173.47;;;33.27;;
11771;SDS011;12556;55.748;13.194;2024-01-30T08:08:39;116.53;;;28.47;;
11771;SDS011;12556;55.748;13.194;2024-01-30T08:11:06;228.53;;;39.23;;
11771;SDS011;12556;55.748;13.194;2024-01-30T08:13:33;133.83;;;30.90;;
11771;SDS011;12556;55.748;13.194;2024-01-30T08:16:00;187.87;;;32.50;;
11771;SDS011;12556;55.748;13.194;2024-01-30T08:18:27;177.57;;;36.07;;
11771;SDS011;12556;55.748;13.194;2024-01-30T08:20:54;230.27;;;36.70;;
11771;SDS011;12556;55.748;13.194;2024-01-30T08:23:22;288.70;;;40.77;;
11771;SDS011;12556;55.748;13.194;2024-01-30T08:25:49;177.23;;;32.50;;
11771;SDS011;12556;55.748;13.194;2024-01-30T08:28:16;153.80;;;32.50;;
11771;SDS011;12556;55.748;13.194;2024-01-30T08:30:43;127.17;;;30.57;;
11771;SDS011;12556;55.748;13.194;2024-01-30T08:33:10;156.47;;;32.47;;
11771;SDS011;12556;55.748;13.194;2024-01-30T08:35:37;127.83;;;30.47;;
11771;SDS011;12556;55.748;13.194;2024-01-30T08:38:03;127.90;;;28.83;;
11771;SDS011;12556;55.748;13.194;2024-01-30T08:40:32;139.73;;;29.70;;
11771;SDS011;12556;55.748;13.194;2024-01-30T08:42:59;81.70;;;25.33;;
11771;SDS011;12556;55.748;13.194;2024-01-30T08:45:26;162.10;;;32.40;;
11771;SDS011;12556;55.748;13.194;2024-01-30T08:47:52;203.33;;;32.80;;
11771;SDS011;12556;55.748;13.194;2024-01-30T08:50:19;140.90;;;29.37;;
11771;SDS011;12556;55.748;13.194;2024-01-30T08:52:46;151.83;;;29.80;;
11771;SDS011;12556;55.748;13.194;2024-01-30T08:55:13;168.73;;;30.73;;
11771;SDS011;12556;55.748;13.194;2024-01-30T08:57:41;183.43;;;32.73;;
11771;SDS011;12556;55.748;13.194;2024-01-30T09:00:08;166.20;;;31.53;;
11771;SDS011;12556;55.748;13.194;2024-01-30T09:02:36;109.60;;;26.87;;
11771;SDS011;12556;55.748;13.194;2024-01-30T09:05:03;139.43;;;29.70;;
11771;SDS011;12556;55.748;13.194;2024-01-30T09:07:30;79.73;;;23.90;;
11771;SDS011;12556;55.748;13.194;2024-01-30T09:09:57;110.73;;;24.80;;
11771;SDS011;12556;55.748;13.194;2024-01-30T09:12:24;83.20;;;22.40;;
11771;SDS011;12556;55.748;13.194;2024-01-30T09:14:52;100.93;;;25.43;;
11771;SDS011;12556;55.748;13.194;2024-01-30T09:17:20;118.63;;;25.27;;
11771;SDS011;12556;55.748;13.194;2024-01-30T09:19:46;81.07;;;22.67;;
11771;SDS011;12556;55.748;13.194;2024-01-30T09:22:13;107.57;;;24.70;;
11771;SDS011;12556;55.748;13.194;2024-01-30T09:24:40;99.93;;;24.83;;
11771;SDS011;12556;55.748;13.194;2024-01-30T09:27:07;72.50;;;20.37;;
11771;SDS011;12556;55.748;13.194;2024-01-30T09:29:34;88.40;;;23.30;;
11771;SDS011;12556;55.748;13.194;2024-01-30T09:32:03;98.73;;;22.27;;
11771;SDS011;12556;55.748;13.194;2024-01-30T09:34:31;101.63;;;23.47;;
11771;SDS011;12556;55.748;13.194;2024-01-30T09:36:58;95.47;;;21.23;;
11771;SDS011;12556;55.748;13.194;2024-01-30T09:39:25;78.73;;;20.53;;
11771;SDS011;12556;55.748;13.194;2024-01-30T09:41:55;98.67;;;21.73;;
11771;SDS011;12556;55.748;13.194;2024-01-30T09:44:28;92.77;;;20.90;;
11771;SDS011;12556;55.748;13.194;2024-01-30T09:46:55;71.07;;;19.93;;
11771;SDS011;12556;55.748;13.194;2024-01-30T09:49:25;107.37;;;22.50;;
11771;SDS011;12556;55.748;13.194;2024-01-30T09:51:52;52.80;;;15.10;;
11771;SDS011;12556;55.748;13.194;2024-01-30T09:54:20;56.47;;;16.70;;
11771;SDS011;12556;55.748;13.194;2024-01-30T09:56:48;65.37;;;16.57;;
11771;SDS011;12556;55.748;13.194;2024-01-30T09:59:15;64.73;;;16.43;;
11771;SDS011;12556;55.748;13.194;2024-01-30T10:01:42;70.53;;;17.43;;
11771;SDS011;12556;55.748;13.194;2024-01-30T10:04:09;65.03;;;15.93;;
11771;SDS011;12556;55.748;13.194;2024-01-30T10:06:38;53.57;;;15.33;;
11771;SDS011;12556;55.748;13.194;2024-01-30T10:09:06;55.43;;;16.47;;
11771;SDS011;12556;55.748;13.194;2024-01-30T10:11:34;67.00;;;17.73;;
11771;SDS011;12556;55.748;13.194;2024-01-30T10:14:01;46.97;;;14.83;;
11771;SDS011;12556;55.748;13.194;2024-01-30T10:16:28;50.50;;;15.27;;
11771;SDS011;12556;55.748;13.194;2024-01-30T10:18:55;43.67;;;13.80;;
11771;SDS011;12556;55.748;13.194;2024-01-30T10:21:22;42.03;;;15.37;;
11771;SDS011;12556;55.748;13.194;2024-01-30T10:23:51;52.90;;;14.27;;
11771;SDS011;12556;55.748;13.194;2024-01-30T10:26:18;40.77;;;13.63;;
11771;SDS011;12556;55.748;13.194;2024-01-30T10:28:45;46.93;;;14.07;;
11771;SDS011;12556;55.748;13.194;2024-01-30T10:31:15;38.93;;;13.07;;
11771;SDS011;12556;55.748;13.194;2024-01-30T10:33:43;43.03;;;13.77;;
11771;SDS011;12556;55.748;13.194;2024-01-30T10:36:11;32.07;;;12.37;;
11771;SDS011;12556;55.748;13.194;2024-01-30T10:38:40;35.00;;;12.87;;
11771;SDS011;12556;55.748;13.194;2024-01-30T10:41:12;37.73;;;12.87;;
11771;SDS011;12556;55.748;13.194;2024-01-30T10:43:41;28.33;;;12.40;;
11771;SDS011;12556;55.748;13.194;2024-01-30T10:46:15;34.80;;;13.77;;
11771;SDS011;12556;55.748;13.194;2024-01-30T10:48:46;31.63;;;13.13;;
11771;SDS011;12556;55.748;13.194;2024-01-30T10:51:17;33.00;;;13.37;;
11771;SDS011;12556;55.748;13.194;2024-01-30T10:53:46;35.80;;;13.33;;
11771;SDS011;12556;55.748;13.194;2024-01-30T10:56:17;25.90;;;12.97;;
11771;SDS011;12556;55.748;13.194;2024-01-30T10:58:46;32.03;;;15.77;;
11771;SDS011;12556;55.748;13.194;2024-01-30T11:01:14;40.30;;;19.13;;
11771;SDS011;12556;55.748;13.194;2024-01-30T11:03:42;42.10;;;18.03;;
11771;SDS011;12556;55.748;13.194;2024-01-30T11:06:10;39.40;;;19.90;;
11771;SDS011;12556;55.748;13.194;2024-01-30T11:08:39;45.33;;;20.83;;
11771;SDS011;12556;55.748;13.194;2024-01-30T11:11:08;48.20;;;19.43;;
11771;SDS011;12556;55.748;13.194;2024-01-30T11:13:37;49.97;;;20.00;;
11771;SDS011;12556;55.748;13.194;2024-01-30T11:16:04;51.60;;;21.40;;
11771;SDS011;12556;55.748;13.194;2024-01-30T11:18:32;43.00;;;19.30;;
11771;SDS011;12556;55.748;13.194;2024-01-30T11:21:04;44.60;;;18.63;;
11771;SDS011;12556;55.748;13.194;2024-01-30T11:23:32;44.67;;;19.30;;
11771;SDS011;12556;55.748;13.194;2024-01-30T11:26:00;46.33;;;20.03;;
11771;SDS011;12556;55.748;13.194;2024-01-30T11:28:31;47.73;;;21.77;;
11771;SDS011;12556;55.748;13.194;2024-01-30T11:31:04;49.80;;;20.43;;
11771;SDS011;12556;55.748;13.194;2024-01-30T11:33:32;42.93;;;18.60;;
11771;SDS011;12556;55.748;13.194;2024-01-30T11:35:59;42.47;;;19.17;;
11771;SDS011;12556;55.748;13.194;2024-01-30T11:38:27;45.77;;;19.30;;
11771;SDS011;12556;55.748;13.194;2024-01-30T11:40:55;41.70;;;15.90;;
11771;SDS011;12556;55.748;13.194;2024-01-30T11:43:22;34.10;;;14.80;;
11771;SDS011;12556;55.748;13.194;2024-01-30T11:45:49;32.67;;;14.50;;
11771;SDS011;12556;55.748;13.194;2024-01-30T11:48:18;36.07;;;15.20;;
11771;SDS011;12556;55.748;13.194;2024-01-30T11:50:45;35.70;;;15.30;;
11771;SDS011;12556;55.748;13.194;2024-01-30T11:53:12;31.13;;;14.37;;
11771;SDS011;12556;55.748;13.194;2024-01-30T11:55:39;24.77;;;13.83;;
11771;SDS011;12556;55.748;13.194;2024-01-30T11:58:06;30.97;;;13.87;;
11771;SDS011;12556;55.748;13.194;2024-01-30T12:00:33;31.60;;;14.73;;
11771;SDS011;12556;55.748;13.194;2024-01-30T12:03:00;29.53;;;14.43;;
11771;SDS011;12556;55.748;13.194;2024-01-30T12:05:29;29.77;;;15.17;;
11771;SDS011;12556;55.748;13.194;2024-01-30T12:07:56;26.53;;;13.70;;
11771;SDS011;12556;55.748;13.194;2024-01-30T12:10:23;26.23;;;14.67;;
11771;SDS011;12556;55.748;13.194;2024-01-30T12:12:51;39.47;;;14.67;;
11771;SDS011;12556;55.748;13.194;2024-01-30T12:15:21;29.70;;;15.47;;
11771;SDS011;12556;55.748;13.194;2024-01-30T12:17:48;36.77;;;17.60;;
11771;SDS011;12556;55.748;13.194;2024-01-30T12:20:17;34.97;;;14.63;;
11771;SDS011;12556;55.748;13.194;2024-01-30T12:22:46;30.57;;;14.70;;
11771;SDS011;12556;55.748;13.194;2024-01-30T12:25:14;27.50;;;14.23;;
11771;SDS011;12556;55.748;13.194;2024-01-30T12:27:42;39.40;;;14.47;;
11771;SDS011;12556;55.748;13.194;2024-01-30T12:30:11;31.50;;;14.17;;
11771;SDS011;12556;55.748;13.194;2024-01-30T12:32:40;27.43;;;14.07;;
11771;SDS011;12556;55.748;13.194;2024-01-30T12:35:09;24.37;;;12.70;;
11771;SDS011;12556;55.748;13.194;2024-01-30T12:37:36;23.93;;;11.63;;
11771;SDS011;12556;55.748;13.194;2024-01-30T12:40:05;24.67;;;11.23;;
11771;SDS011;12556;55.748;13.194;2024-01-30T12:42:34;29.47;;;12.60;;
11771;SDS011;12556;55.748;13.194;2024-01-30T12:45:01;31.70;;;13.60;;
11771;SDS011;12556;55.748;13.194;2024-01-30T12:47:28;21.27;;;11.87;;
11771;SDS011;12556;55.748;13.194;2024-01-30T12:49:55;30.47;;;12.93;;
11771;SDS011;12556;55.748;13.194;2024-01-30T12:52:22;31.50;;;12.70;;
11771;SDS011;12556;55.748;13.194;2024-01-30T12:54:49;28.33;;;12.50;;
11771;SDS011;12556;55.748;13.194;2024-01-30T12:57:18;36.00;;;14.87;;
11771;SDS011;12556;55.748;13.194;2024-01-30T12:59:45;25.37;;;13.23;;
11771;SDS011;12556;55.748;13.194;2024-01-30T13:02:12;29.43;;;13.77;;
11771;SDS011;12556;55.748;13.194;2024-01-30T13:04:40;33.80;;;14.37;;
11771;SDS011;12556;55.748;13.194;2024-01-30T13:07:08;27.83;;;14.03;;
11771;SDS011;12556;55.748;13.194;2024-01-30T13:09:35;23.40;;;13.23;;
11771;SDS011;12556;55.748;13.194;2024-01-30T13:12:03;19.33;;;12.37;;
11771;SDS011;12556;55.748;13.194;2024-01-30T13:14:31;15.37;;;10.33;;
11771;SDS011;12556;55.748;13.194;2024-01-30T13:16:58;18.70;;;11.50;;
11771;SDS011;12556;55.748;13.194;2024-01-30T13:19:25;19.57;;;11.87;;
11771;SDS011;12556;55.748;13.194;2024-01-30T13:21:52;20.67;;;14.00;;
11771;SDS011;12556;55.748;13.194;2024-01-30T13:24:19;20.93;;;12.37;;
11771;SDS011;12556;55.748;13.194;2024-01-30T13:26:46;19.10;;;12.03;;
11771;SDS011;12556;55.748;13.194;2024-01-30T13:29:14;18.07;;;11.90;;
11771;SDS011;12556;55.748;13.194;2024-01-30T13:31:42;23.37;;;13.50;;
11771;SDS011;12556;55.748;13.194;2024-01-30T13:34:11;19.10;;;12.80;;
11771;SDS011;12556;55.748;13.194;2024-01-30T13:36:38;23.27;;;13.03;;
11771;SDS011;12556;55.748;13.194;2024-01-30T13:39:06;20.80;;;13.67;;
11771;SDS011;12556;55.748;13.194;2024-01-30T13:41:35;22.33;;;13.30;;
11771;SDS011;12556;55.748;13.194;2024-01-30T13:44:02;19.00;;;12.93;;
11771;SDS011;12556;55.748;13.194;2024-01-30T13:46:29;20.47;;;13.23;;
11771;SDS011;12556;55.748;13.194;2024-01-30T13:48:57;18.27;;;12.27;;
11771;SDS011;12556;55.748;13.194;2024-01-30T13:51:24;18.97;;;12.67;;
11771;SDS011;12556;55.748;13.194;2024-01-30T13:53:51;20.07;;;13.57;;
11771;SDS011;12556;55.748;13.194;2024-01-30T13:56:18;19.20;;;12.93;;
11771;SDS011;12556;55.748;13.194;2024-01-30T13:58:45;18.83;;;12.93;;
11771;SDS011;12556;55.748;13.194;2024-01-30T14:01:12;17.53;;;11.37;;
11771;SDS011;12556;55.748;13.194;2024-01-30T14:03:39;16.33;;;11.70;;
11771;SDS011;12556;55.748;13.194;2024-01-30T14:06:10;21.10;;;12.67;;
11771;SDS011;12556;55.748;13.194;2024-01-30T14:08:37;19.07;;;12.77;;
11771;SDS011;12556;55.748;13.194;2024-01-30T14:11:04;21.00;;;13.70;;